Terminal Aerodrome Forecast
Issued by NWS Cleveland, OH

Home | Current Version | Previous Version | Graphics & Text | Print | Product List | Glossary On
Versions: 1 2 3 4 5 6 7 8 9 10 11 12 13 14 15 16 17 18
000
FTUS41 KCLE 222300
TAFCAK
TAF
KCAK 222339Z 2300/2324 27012KT P6SM BKN040 BKN060
     FM231300 28012G20KT P6SM BKN025 OVC035
     FM231600 30015G25KT P6SM BKN035 OVC050=

USA.gov is the U.S. government's official web portal to all federal, state and local government web resources and services.